Time;durP1;ratioP1;P1;durP2;ratioP2;P2;SDS_P1;SDS_P2;PMS_P1;PMS_P2;Temp;Humidity;BMP_temperature;BMP_pressure;BME280_temperature;BME280_humidity;BME280_pressure;Samples;Min_cycle;Max_cycle;Signal;HPM_P1;HPM_P2
2021/04/25 00:01:46;;;;;;;9.33;8.73;;;24.40;61.00;;;;;;6283312;22;20450;-46
2021/04/25 00:04:15;;;;;;;9.00;8.50;;;24.40;61.00;;;;;;6281192;22;20562;-45
2021/04/25 00:06:42;;;;;;;9.33;8.63;;;24.40;61.10;;;;;;6284036;22;20438;-46
2021/04/25 00:09:09;;;;;;;9.07;8.57;;;24.40;61.10;;;;;;6283025;22;20543;-47
2021/04/25 00:11:36;;;;;;;8.87;8.23;;;24.40;61.10;;;;;;6281535;22;20579;-44
2021/04/25 00:14:04;;;;;;;9.70;8.90;;;24.40;61.20;;;;;;6280782;22;20451;-46
2021/04/25 00:16:30;;;;;;;8.87;8.37;;;24.40;61.20;;;;;;6282631;22;20807;-46
2021/04/25 00:18:58;;;;;;;8.23;7.73;;;24.40;61.20;;;;;;6281751;22;20451;-44
2021/04/25 00:21:25;;;;;;;8.90;8.40;;;24.40;61.30;;;;;;6280822;22;20451;-47
2021/04/25 00:23:51;;;;;;;7.73;7.33;;;24.40;61.30;;;;;;6281460;22;20508;-44
2021/04/25 00:26:19;;;;;;;7.97;7.47;;;24.40;61.30;;;;;;6282884;22;20469;-47
2021/04/25 00:28:45;;;;;;;8.33;7.80;;;24.40;61.40;;;;;;6282614;22;20447;-45
2021/04/25 00:31:12;;;;;;;8.70;8.17;;;24.40;61.40;;;;;;6282604;22;20443;-45
2021/04/25 00:33:39;;;;;;;8.13;7.73;;;24.40;61.40;;;;;;6282709;22;20628;-45
2021/04/25 00:36:06;;;;;;;8.10;7.60;;;24.40;61.40;;;;;;6280686;22;20539;-45
2021/04/25 00:38:33;;;;;;;9.20;8.60;;;24.40;61.50;;;;;;6280950;22;20445;-45
2021/04/25 00:41:08;;;;;;;8.90;8.40;;;24.40;61.50;;;;;;6281707;22;20726;-44
2021/04/25 00:43:36;;;;;;;8.40;7.90;;;24.40;61.60;;;;;;6281282;22;20445;-47
2021/04/25 00:46:03;;;;;;;8.63;7.90;;;24.40;61.60;;;;;;6283246;22;20683;-47
2021/04/25 00:48:30;;;;;;;8.60;8.10;;;24.40;61.60;;;;;;6282824;22;20452;-44
2021/04/25 00:50:58;;;;;;;8.77;8.13;;;24.40;61.70;;;;;;6280758;22;20496;-45
2021/04/25 00:53:25;;;;;;;8.70;8.10;;;24.40;61.70;;;;;;6281981;22;20725;-44
2021/04/25 00:55:52;;;;;;;8.77;8.30;;;24.40;61.70;;;;;;6280586;22;20446;-44
2021/04/25 00:58:20;;;;;;;7.90;7.50;;;24.40;61.70;;;;;;6280641;22;20454;-44
2021/04/25 01:00:47;;;;;;;9.60;8.80;;;24.40;61.80;;;;;;6281347;22;20434;-45
2021/04/25 01:03:18;;;;;;;9.33;8.77;;;24.40;61.80;;;;;;6254921;22;20796;-46
2021/04/25 01:05:45;;;;;;;8.57;8.07;;;24.40;61.80;;;;;;6281788;22;20775;-44
2021/04/25 01:08:11;;;;;;;7.60;7.30;;;24.40;61.80;;;;;;6254333;22;20478;-44
2021/04/25 01:10:39;;;;;;;8.50;8.00;;;24.40;61.90;;;;;;6282848;22;20760;-45
2021/04/25 01:13:05;;;;;;;8.10;7.70;;;24.40;61.90;;;;;;6280918;22;20440;-44
2021/04/25 01:15:32;;;;;;;8.10;7.70;;;24.40;61.90;;;;;;6256242;22;20437;-44
2021/04/25 01:17:59;;;;;;;8.70;8.20;;;24.40;61.90;;;;;;6255083;22;20471;-45
2021/04/25 01:20:26;;;;;;;8.27;7.77;;;24.40;62.00;;;;;;6283977;22;20464;-45
2021/04/25 01:22:55;;;;;;;8.67;8.10;;;24.40;62.00;;;;;;6283076;22;20444;-44
2021/04/25 01:25:24;;;;;;;8.70;8.20;;;24.40;62.10;;;;;;6279487;22;20450;-45
2021/04/25 01:27:51;;;;;;;8.17;7.77;;;24.40;62.10;;;;;;6280728;22;20681;-45
2021/04/25 01:30:21;;;;;;;9.50;8.90;;;24.40;62.10;;;;;;6281013;22;20663;-45
2021/04/25 01:32:47;;;;;;;9.23;8.63;;;24.40;62.20;;;;;;6282203;22;20579;-45
2021/04/25 01:35:20;;;;;;;8.43;7.93;;;24.40;62.20;;;;;;6281811;22;20432;-45
2021/04/25 01:37:48;;;;;;;9.37;8.87;;;24.40;62.20;;;;;;6230292;22;20443;-45
2021/04/25 01:40:16;;;;;;;8.47;7.97;;;24.40;62.20;;;;;;6281532;22;20770;-45
2021/04/25 01:42:43;;;;;;;8.67;7.97;;;24.40;62.20;;;;;;6279905;22;20686;-46
2021/04/25 01:45:15;;;;;;;8.43;7.73;;;24.40;62.30;;;;;;6278731;22;20455;-45
2021/04/25 01:47:44;;;;;;;8.47;8.00;;;24.40;62.20;;;;;;6281770;22;20463;-44
2021/04/25 01:50:11;;;;;;;8.50;7.90;;;24.40;62.30;;;;;;6281189;22;20705;-45
2021/04/25 01:52:37;;;;;;;7.47;7.13;;;24.40;62.40;;;;;;6281607;22;20443;-45
2021/04/25 01:55:05;;;;;;;8.27;7.80;;;24.40;62.30;;;;;;6279520;22;20448;-44
2021/04/25 01:57:32;;;;;;;8.57;8.10;;;24.40;62.30;;;;;;6278929;22;20814;-45
2021/04/25 02:00:00;;;;;;;8.20;7.80;;;24.40;62.30;;;;;;6278042;22;20460;-45
2021/04/25 02:02:27;;;;;;;8.37;7.77;;;24.40;62.40;;;;;;6281673;22;20790;-45
2021/04/25 02:04:54;;;;;;;8.90;8.40;;;24.40;62.40;;;;;;6279799;22;20451;-45
2021/04/25 02:07:20;;;;;;;8.23;7.83;;;24.40;62.40;;;;;;6279096;22;20450;-46
2021/04/25 02:09:47;;;;;;;8.43;8.00;;;24.40;62.40;;;;;;6281685;22;20439;-45
2021/04/25 02:12:15;;;;;;;9.10;8.40;;;24.40;62.40;;;;;;6282230;22;20747;-45
2021/04/25 02:14:43;;;;;;;8.03;7.63;;;24.40;62.40;;;;;;6281597;22;20462;-45
2021/04/25 02:17:10;;;;;;;8.97;8.37;;;24.50;62.50;;;;;;6280282;22;20463;-45
2021/04/25 02:19:37;;;;;;;8.27;7.87;;;24.40;62.50;;;;;;6283612;22;20804;-45
2021/04/25 02:22:03;;;;;;;7.90;7.60;;;24.40;62.50;;;;;;6278935;22;20463;-44
2021/04/25 02:24:30;;;;;;;8.87;8.37;;;24.50;63.30;;;;;;6282240;22;20742;-45
2021/04/25 02:26:56;;;;;;;8.50;8.00;;;24.50;62.60;;;;;;6282224;22;20537;-44
2021/04/25 02:29:23;;;;;;;7.87;7.47;;;24.50;62.60;;;;;;6281338;22;20442;-45
2021/04/25 02:31:51;;;;;;;7.70;7.40;;;24.50;62.60;;;;;;6277993;22;20559;-45
2021/04/25 02:34:18;;;;;;;7.90;7.40;;;24.50;62.60;;;;;;6277725;22;20434;-44
2021/04/25 02:36:44;;;;;;;9.00;8.43;;;24.50;62.60;;;;;;6279623;22;20430;-45
2021/04/25 02:39:11;;;;;;;8.23;7.83;;;24.50;62.60;;;;;;6280120;22;20711;-45
2021/04/25 02:41:38;;;;;;;8.73;8.23;;;24.50;62.60;;;;;;6280955;22;20454;-45
2021/04/25 02:44:05;;;;;;;7.90;7.60;;;24.50;62.60;;;;;;6278368;22;20462;-45
2021/04/25 02:46:32;;;;;;;8.30;7.90;;;24.50;62.60;;;;;;6253177;22;20443;-44
2021/04/25 02:48:59;;;;;;;8.53;8.10;;;24.50;62.60;;;;;;6280381;22;20450;-46
2021/04/25 02:51:26;;;;;;;8.30;7.87;;;24.60;62.70;;;;;;6282265;22;20439;-44
2021/04/25 02:53:52;;;;;;;8.50;8.03;;;24.60;62.70;;;;;;6281264;22;20436;-45
2021/04/25 02:56:19;;;;;;;7.70;7.30;;;24.60;62.70;;;;;;6279814;22;20447;-46
2021/04/25 02:58:45;;;;;;;8.47;8.10;;;24.60;62.70;;;;;;6279354;22;20446;-45
2021/04/25 03:01:12;;;;;;;7.73;7.33;;;24.60;62.70;;;;;;6253362;22;20804;-46
2021/04/25 03:03:39;;;;;;;8.27;7.77;;;24.60;62.70;;;;;;6280375;22;20458;-45
2021/04/25 03:06:06;;;;;;;7.43;7.13;;;24.60;62.70;;;;;;6280935;22;20432;-44
2021/04/25 03:08:33;;;;;;;7.30;7.00;;;24.60;62.70;;;;;;6280933;22;20450;-45
2021/04/25 03:10:59;;;;;;;8.73;8.23;;;24.60;62.80;;;;;;6280086;22;20463;-45
2021/04/25 03:13:27;;;;;;;7.60;7.07;;;24.60;62.70;;;;;;6280913;22;20438;-44
2021/04/25 03:15:54;;;;;;;8.03;7.63;;;24.60;62.70;;;;;;6279804;22;20435;-44
2021/04/25 03:18:20;;;;;;;8.77;8.37;;;24.60;62.70;;;;;;6281577;22;20640;-46
2021/04/25 03:20:47;;;;;;;8.83;8.33;;;24.60;62.70;;;;;;6279810;22;20443;-45
2021/04/25 03:23:14;;;;;;;8.10;7.77;;;24.60;62.70;;;;;;6281041;22;20728;-45
2021/04/25 03:25:41;;;;;;;9.17;8.67;;;24.60;62.80;;;;;;6281904;22;20437;-45
2021/04/25 03:28:08;;;;;;;9.07;8.53;;;24.60;62.90;;;;;;6253389;22;20813;-44
2021/04/25 03:30:34;;;;;;;8.10;7.73;;;24.60;62.80;;;;;;6279417;22;20849;-45
2021/04/25 03:33:01;;;;;;;8.27;7.77;;;24.60;62.80;;;;;;6282821;22;20445;-45
2021/04/25 03:35:27;;;;;;;8.50;7.90;;;24.60;62.80;;;;;;6283050;22;20452;-46
2021/04/25 03:37:54;;;;;;;8.47;7.83;;;24.70;62.90;;;;;;6281865;22;20539;-45
2021/04/25 03:40:21;;;;;;;8.10;7.60;;;24.70;63.60;;;;;;6281751;22;20465;-45
2021/04/25 03:42:48;;;;;;;8.27;7.80;;;24.70;62.90;;;;;;6282483;22;20452;-45
2021/04/25 03:45:16;;;;;;;7.97;7.47;;;24.70;62.90;;;;;;6283149;22;20451;-45
2021/04/25 03:47:44;;;;;;;7.90;7.50;;;24.70;63.00;;;;;;6282049;22;20506;-45
2021/04/25 03:50:12;;;;;;;7.70;7.30;;;24.70;62.90;;;;;;6281892;22;20452;-45
2021/04/25 03:52:40;;;;;;;8.57;8.13;;;24.70;62.90;;;;;;6280398;22;20458;-45
2021/04/25 03:55:08;;;;;;;9.37;8.77;;;24.80;63.00;;;;;;6282201;22;20447;-45
2021/04/25 03:57:35;;;;;;;8.00;7.60;;;24.70;62.90;;;;;;6280986;22;20536;-45
2021/04/25 04:00:03;;;;;;;8.47;8.00;;;24.70;63.00;;;;;;6281739;22;20532;-45
2021/04/25 04:02:32;;;;;;;8.67;8.10;;;24.70;63.00;;;;;;6281718;22;20956;-46
2021/04/25 04:04:59;;;;;;;9.20;8.70;;;24.80;63.10;;;;;;6280828;22;20590;-45
2021/04/25 04:07:25;;;;;;;8.90;8.40;;;24.80;63.00;;;;;;6253187;22;20861;-45
2021/04/25 04:09:54;;;;;;;8.70;8.20;;;24.80;63.00;;;;;;6283708;22;20888;-44
2021/04/25 04:12:21;;;;;;;8.40;8.00;;;24.80;63.00;;;;;;6281977;22;20454;-44
2021/04/25 04:14:48;;;;;;;8.67;8.17;;;24.80;62.90;;;;;;6282759;22;20459;-44
2021/04/25 04:17:15;;;;;;;8.20;7.70;;;24.90;63.00;;;;;;6281438;22;20541;-45
2021/04/25 04:19:41;;;;;;;9.07;8.50;;;24.80;63.00;;;;;;6282099;22;20793;-46
2021/04/25 04:22:08;;;;;;;8.00;7.60;;;24.90;63.10;;;;;;6280861;22;20738;-44
2021/04/25 04:24:34;;;;;;;8.13;7.67;;;24.80;63.00;;;;;;6280338;22;20766;-45
2021/04/25 04:27:01;;;;;;;8.90;8.27;;;24.90;63.20;;;;;;6279547;22;20785;-45
2021/04/25 04:29:29;;;;;;;8.20;7.70;;;24.80;63.10;;;;;;6280981;22;20681;-46
2021/04/25 04:31:57;;;;;;;8.63;8.13;;;24.90;63.10;;;;;;6279769;22;20663;-45
2021/04/25 04:34:23;;;;;;;8.20;7.80;;;24.90;63.30;;;;;;6282140;22;20452;-45
2021/04/25 04:36:50;;;;;;;8.33;7.83;;;24.90;63.10;;;;;;6280970;22;20477;-45
2021/04/25 04:39:17;;;;;;;8.20;7.80;;;24.90;63.10;;;;;;6280024;22;20710;-45
2021/04/25 04:41:43;;;;;;;8.97;8.57;;;24.90;63.20;;;;;;6281343;22;20438;-45
2021/04/25 04:44:10;;;;;;;7.70;7.30;;;24.90;63.20;;;;;;6281054;22;20458;-44
2021/04/25 04:46:37;;;;;;;7.97;7.53;;;24.90;63.20;;;;;;6280485;22;20444;-45
2021/04/25 04:49:04;;;;;;;8.10;7.70;;;24.90;63.20;;;;;;6253561;22;20758;-44
2021/04/25 04:51:31;;;;;;;8.57;8.13;;;24.90;63.20;;;;;;6281599;22;20470;-46
2021/04/25 04:53:58;;;;;;;7.70;7.30;;;24.90;63.20;;;;;;6281226;22;20691;-46
2021/04/25 04:56:24;;;;;;;8.47;8.00;;;25.00;63.30;;;;;;6280621;22;20459;-45
2021/04/25 04:58:51;;;;;;;8.60;8.20;;;24.90;63.20;;;;;;6281772;22;20797;-45
2021/04/25 05:01:17;;;;;;;8.43;8.10;;;24.90;63.20;;;;;;6281327;22;20721;-45
2021/04/25 05:03:44;;;;;;;8.70;8.13;;;25.00;63.30;;;;;;6280445;22;20820;-45
2021/04/25 05:06:11;;;;;;;7.60;7.20;;;25.00;63.30;;;;;;6253315;22;20451;-45
2021/04/25 05:08:38;;;;;;;9.10;8.50;;;25.00;63.30;;;;;;6280750;22;20447;-45
2021/04/25 05:11:05;;;;;;;9.43;8.73;;;25.00;63.30;;;;;;6281654;22;20440;-45
2021/04/25 05:13:31;;;;;;;8.30;7.90;;;25.00;63.40;;;;;;6281339;22;20448;-46
2021/04/25 05:15:58;;;;;;;8.73;8.23;;;25.00;63.40;;;;;;6255034;22;20543;-45
2021/04/25 05:18:24;;;;;;;8.30;7.90;;;25.00;63.40;;;;;;6284222;22;20448;-44
2021/04/25 05:20:51;;;;;;;8.90;8.40;;;25.00;63.40;;;;;;6281485;22;20546;-44
2021/04/25 05:23:19;;;;;;;8.33;7.87;;;25.00;63.40;;;;;;6279220;22;20435;-45
2021/04/25 05:25:45;;;;;;;8.30;7.90;;;25.00;63.40;;;;;;6281065;22;20655;-45
2021/04/25 05:28:12;;;;;;;8.17;7.77;;;25.00;63.40;;;;;;6281930;22;20454;-44
2021/04/25 05:30:38;;;;;;;8.20;7.80;;;25.00;63.40;;;;;;6282151;22;20565;-44
2021/04/25 05:33:05;;;;;;;8.27;7.87;;;25.00;63.40;;;;;;6252280;22;20455;-45
2021/04/25 05:35:32;;;;;;;8.73;8.17;;;25.00;63.40;;;;;;6281383;22;20904;-45
2021/04/25 05:37:59;;;;;;;8.20;7.80;;;25.00;63.50;;;;;;6280385;22;20520;-45
2021/04/25 05:40:26;;;;;;;9.00;8.30;;;25.00;63.50;;;;;;6280418;22;20443;-45
2021/04/25 05:42:53;;;;;;;8.43;7.93;;;25.00;63.60;;;;;;6281889;22;20457;-46
2021/04/25 05:45:22;;;;;;;8.50;8.00;;;25.00;63.60;;;;;;6282175;22;20444;-45
2021/04/25 05:47:52;;;;;;;7.80;7.50;;;25.00;63.60;;;;;;6253062;22;20465;-45
2021/04/25 05:50:20;;;;;;;8.60;8.20;;;25.00;63.60;;;;;;6278810;22;20457;-44
2021/04/25 05:52:47;;;;;;;8.93;8.43;;;25.00;63.60;;;;;;6279344;22;20462;-46
2021/04/25 05:55:14;;;;;;;8.97;8.50;;;25.00;63.70;;;;;;6279913;22;20486;-45
2021/04/25 05:57:49;;;;;;;8.77;8.27;;;25.00;63.80;;;;;;6278699;22;20459;-45
2021/04/25 06:00:19;;;;;;;8.70;8.10;;;25.00;63.90;;;;;;6250750;22;20461;-45
2021/04/25 06:02:45;;;;;;;8.33;7.93;;;24.90;63.80;;;;;;6280060;22;20440;-45
2021/04/25 06:05:12;;;;;;;8.40;7.93;;;24.90;63.90;;;;;;6280013;22;20560;-46
2021/04/25 06:07:39;;;;;;;8.33;7.93;;;24.90;63.90;;;;;;6281588;22;20711;-45
2021/04/25 06:10:08;;;;;;;8.50;8.10;;;24.90;64.00;;;;;;6280523;22;20440;-46
2021/04/25 06:12:36;;;;;;;8.37;7.97;;;24.90;64.00;;;;;;6280094;22;20440;-45
2021/04/25 06:15:07;;;;;;;8.70;8.30;;;24.90;64.10;;;;;;6280969;22;20454;-44
2021/04/25 06:17:35;;;;;;;8.10;7.70;;;24.90;64.20;;;;;;6280271;22;20918;-46
2021/04/25 06:20:06;;;;;;;8.50;8.10;;;24.90;64.20;;;;;;6281466;22;20780;-45
2021/04/25 06:22:34;;;;;;;8.60;8.20;;;24.90;64.20;;;;;;6282346;22;20445;-46
2021/04/25 06:25:00;;;;;;;9.50;8.80;;;24.90;64.30;;;;;;6280061;22;20804;-46
2021/04/25 06:27:30;;;;;;;7.90;7.50;;;24.90;64.30;;;;;;6281684;22;20527;-46
2021/04/25 06:30:14;;;;;;;8.57;8.13;;;24.80;64.20;;;;;;6282729;22;20512;-47
2021/04/25 06:32:44;;;;;;;8.70;8.20;;;24.80;64.40;;;;;;6280331;22;20457;-45
2021/04/25 06:35:13;;;;;;;8.60;8.20;;;24.90;64.50;;;;;;6278866;22;20820;-45
2021/04/25 06:37:40;;;;;;;8.00;7.50;;;24.80;64.30;;;;;;6280673;22;20438;-44
2021/04/25 06:40:08;;;;;;;9.10;8.60;;;24.90;64.60;;;;;;6278690;22;20538;-45
2021/04/25 06:42:38;;;;;;;8.00;7.60;;;24.80;64.50;;;;;;6280743;22;20464;-45
2021/04/25 06:45:08;;;;;;;8.20;7.80;;;24.80;64.70;;;;;;6277354;22;20547;-46
2021/04/25 06:47:35;;;;;;;8.50;8.00;;;24.80;64.80;;;;;;6278871;22;20476;-47
2021/04/25 06:50:03;;;;;;;8.07;7.60;;;24.80;65.00;;;;;;6279637;22;20545;-45
2021/04/25 06:52:33;;;;;;;8.20;7.77;;;24.80;65.10;;;;;;6281471;22;20796;-45
2021/04/25 06:55:02;;;;;;;8.20;7.70;;;24.80;65.20;;;;;;6277650;22;20779;-45
2021/04/25 06:57:31;;;;;;;9.00;8.40;;;24.70;65.30;;;;;;6278996;22;20854;-46
2021/04/25 06:59:58;;;;;;;8.50;7.77;;;24.70;65.40;;;;;;6277782;22;20451;-46
2021/04/25 07:02:28;;;;;;;8.47;8.03;;;24.70;65.50;;;;;;6279685;22;20518;-46
2021/04/25 07:04:56;;;;;;;8.50;7.80;;;24.70;65.60;;;;;;6279645;22;20450;-45
2021/04/25 07:07:30;;;;;;;8.97;8.13;;;24.70;65.90;;;;;;6277802;22;20453;-46
2021/04/25 07:09:56;;;;;;;8.97;8.20;;;24.70;66.30;;;;;;6279668;22;20643;-45
2021/04/25 07:12:23;;;;;;;9.80;8.90;;;24.70;66.50;;;;;;6279820;22;20502;-46
2021/04/25 07:14:50;;;;;;;8.60;8.00;;;24.70;67.40;;;;;;6280934;22;20454;-47
2021/04/25 07:17:18;;;;;;;9.63;8.67;;;24.70;66.80;;;;;;6279361;22;20469;-46
2021/04/25 07:19:45;;;;;;;9.47;8.70;;;24.70;66.90;;;;;;6278791;22;20452;-45
2021/04/25 07:22:12;;;;;;;8.80;8.10;;;24.70;67.00;;;;;;6279645;22;20692;-45
2021/04/25 07:24:39;;;;;;;9.43;8.70;;;24.70;67.40;;;;;;6278116;22;20444;-46
2021/04/25 07:27:09;;;;;;;11.03;9.90;;;24.70;67.50;;;;;;6278321;22;20448;-46
2021/04/25 07:29:35;;;;;;;10.63;8.40;;;24.70;67.50;;;;;;6279402;22;20479;-46
2021/04/25 07:32:04;;;;;;;9.50;8.70;;;24.70;67.70;;;;;;6280236;22;20466;-45
2021/04/25 07:34:31;;;;;;;9.20;8.30;;;24.70;67.80;;;;;;6276552;22;20438;-45
2021/04/25 07:36:58;;;;;;;8.80;8.10;;;24.70;67.80;;;;;;6277640;22;20757;-46
2021/04/25 07:39:25;;;;;;;11.70;9.93;;;24.80;67.80;;;;;;6280353;22;20442;-46
2021/04/25 07:41:51;;;;;;;10.87;9.97;;;24.80;67.60;;;;;;6282202;22;20778;-46
2021/04/25 07:44:18;;;;;;;10.87;9.93;;;24.80;67.40;;;;;;6282202;22;20648;-46
2021/04/25 07:46:45;;;;;;;11.63;10.53;;;24.80;67.20;;;;;;6281861;22;20589;-45
2021/04/25 07:49:11;;;;;;;12.00;10.90;;;24.80;67.50;;;;;;6279848;22;20806;-46
2021/04/25 07:51:38;;;;;;;13.00;11.90;;;24.80;65.10;;;;;;6279605;22;20439;-45
2021/04/25 07:54:05;;;;;;;13.67;12.10;;;24.80;63.90;;;;;;6253332;22;20432;-46
2021/04/25 07:56:32;;;;;;;12.17;11.27;;;24.80;62.80;;;;;;6281375;22;20467;-46
2021/04/25 07:59:06;;;;;;;13.23;12.03;;;24.80;62.20;;;;;;6281337;22;20987;-45
2021/04/25 08:01:39;;;;;;;12.67;11.47;;;24.80;61.50;;;;;;6279815;22;20443;-47
2021/04/25 08:04:15;;;;;;;13.50;12.30;;;24.80;61.40;;;;;;6282816;22;20456;-46
2021/04/25 08:06:43;;;;;;;12.03;11.23;;;24.80;61.10;;;;;;6282198;22;20442;-45
2021/04/25 08:09:12;;;;;;;11.90;10.83;;;24.80;60.70;;;;;;6281896;22;20459;-47
2021/04/25 08:11:40;;;;;;;16.93;11.00;;;24.70;60.60;;;;;;6282482;22;20452;-45
2021/04/25 08:14:07;;;;;;;15.10;11.73;;;24.70;60.90;;;;;;6276477;22;20829;-45
2021/04/25 08:16:35;;;;;;;12.17;11.07;;;24.60;60.90;;;;;;6276091;22;20540;-46
2021/04/25 08:19:02;;;;;;;13.00;11.70;;;24.70;61.30;;;;;;6279403;22;20445;-45
2021/04/25 08:21:32;;;;;;;12.87;11.70;;;24.60;61.40;;;;;;6278243;22;20454;-45
2021/04/25 08:23:59;;;;;;;13.80;12.50;;;24.60;61.60;;;;;;6277718;22;20450;-45
2021/04/25 08:26:26;;;;;;;14.93;13.63;;;24.60;61.80;;;;;;6276153;22;20454;-45
2021/04/25 08:28:54;;;;;;;15.53;14.17;;;24.60;62.70;;;;;;6280226;22;20749;-46
2021/04/25 08:31:21;;;;;;;14.80;13.53;;;24.60;62.10;;;;;;6279183;22;20463;-45
2021/04/25 08:33:47;;;;;;;16.50;12.57;;;24.60;62.20;;;;;;6275265;22;20425;-45
2021/04/25 08:36:15;;;;;;;18.00;13.07;;;24.60;62.50;;;;;;6280967;22;21084;-45
2021/04/25 08:38:45;;;;;;;16.13;14.60;;;24.60;62.70;;;;;;6278606;22;20859;-45
2021/04/25 08:41:15;;;;;;;16.43;13.40;;;24.60;62.80;;;;;;6279522;22;20452;-46
2021/04/25 08:43:43;;;;;;;14.10;12.60;;;24.60;63.30;;;;;;6279144;22;20438;-46
2021/04/25 08:46:16;;;;;;;13.70;12.50;;;24.60;63.10;;;;;;6277819;22;20765;-45
2021/04/25 08:48:47;;;;;;;14.33;12.47;;;24.60;63.20;;;;;;6278779;22;20911;-44
2021/04/25 08:51:14;;;;;;;14.27;13.07;;;24.60;63.30;;;;;;6280699;22;20442;-47
2021/04/25 08:53:49;;;;;;;13.83;12.43;;;24.60;63.40;;;;;;6282007;22;20483;-46
2021/04/25 08:56:18;;;;;;;12.83;11.83;;;24.50;63.40;;;;;;6281186;22;20443;-45
2021/04/25 08:58:46;;;;;;;13.63;11.70;;;24.50;63.50;;;;;;6281792;22;20830;-45
2021/04/25 09:01:13;;;;;;;15.53;13.87;;;24.50;63.60;;;;;;6279972;22;20579;-46
2021/04/25 09:03:40;;;;;;;13.87;12.47;;;24.50;63.70;;;;;;6282275;22;20448;-46
2021/04/25 09:06:11;;;;;;;14.50;13.20;;;24.50;63.80;;;;;;6280788;22;20457;-46
2021/04/25 09:08:43;;;;;;;14.10;12.87;;;24.40;64.60;;;;;;6252484;22;20534;-47
2021/04/25 09:11:27;;;;;;;14.33;13.17;;;24.50;63.90;;;;;;6280682;22;20800;-46
2021/04/25 09:14:17;;;;;;;13.70;12.70;;;24.50;64.00;;;;;;6281169;22;20451;-45
2021/04/25 09:16:46;;;;;;;13.80;12.80;;;24.50;64.00;;;;;;6235059;22;20491;-45
2021/04/25 09:19:13;;;;;;;14.77;13.10;;;24.50;64.10;;;;;;6280439;22;20967;-46
2021/04/25 09:21:57;;;;;;;14.03;12.77;;;24.50;64.20;;;;;;6280340;22;20450;-44
2021/04/25 09:24:26;;;;;;;14.37;13.27;;;24.50;64.20;;;;;;6280851;22;20443;-46
2021/04/25 09:26:53;;;;;;;13.80;12.80;;;24.40;64.20;;;;;;6280873;22;20463;-44
2021/04/25 09:29:26;;;;;;;15.23;12.97;;;24.50;64.40;;;;;;6276958;22;20930;-45
2021/04/25 09:31:54;;;;;;;13.77;12.77;;;24.50;64.40;;;;;;6279125;22;20499;-44
2021/04/25 09:34:28;;;;;;;15.10;13.50;;;24.40;64.30;;;;;;6278662;22;20782;-46
2021/04/25 09:36:55;;;;;;;14.40;13.00;;;24.40;64.30;;;;;;6275620;22;20450;-46
2021/04/25 09:39:23;;;;;;;13.60;12.40;;;24.50;64.50;;;;;;6278484;22;20463;-46
2021/04/25 09:41:50;;;;;;;13.17;12.10;;;24.40;64.40;;;;;;6277369;22;20440;-45
2021/04/25 09:44:31;;;;;;;13.93;12.73;;;24.40;64.50;;;;;;6280303;22;20535;-46
2021/04/25 09:47:02;;;;;;;13.73;12.60;;;24.40;64.60;;;;;;6278920;22;20438;-46
2021/04/25 09:49:43;;;;;;;14.20;13.10;;;24.40;64.60;;;;;;6276932;22;20486;-45
2021/04/25 09:52:13;;;;;;;13.67;12.23;;;24.50;64.80;;;;;;6250573;22;20439;-44
2021/04/25 09:54:40;;;;;;;14.40;13.10;;;24.40;64.60;;;;;;6278586;22;20451;-48
2021/04/25 09:57:07;;;;;;;14.60;13.30;;;24.50;64.80;;;;;;6275458;22;20456;-45
2021/04/25 09:59:50;;;;;;;12.50;11.70;;;24.40;64.80;;;;;;6274814;22;20797;-44
2021/04/25 10:02:17;;;;;;;13.20;12.03;;;24.40;64.80;;;;;;6275968;22;20685;-45
2021/04/25 10:04:44;;;;;;;13.50;12.30;;;24.40;64.80;;;;;;6279946;22;20460;-45
2021/04/25 10:07:12;;;;;;;13.60;12.60;;;24.40;64.90;;;;;;6276943;22;20443;-45
2021/04/25 10:09:39;;;;;;;15.67;13.17;;;24.40;64.90;;;;;;6250686;22;20503;-47
2021/04/25 10:12:06;;;;;;;13.63;12.73;;;24.40;65.00;;;;;;6277146;22;20575;-44
2021/04/25 10:14:33;;;;;;;14.07;13.13;;;24.40;65.00;;;;;;6276400;22;20451;-44
2021/04/25 10:17:02;;;;;;;14.50;13.33;;;24.40;65.00;;;;;;6269925;22;20457;-46
2021/04/25 10:19:30;;;;;;;13.60;12.50;;;24.40;65.10;;;;;;6274285;22;20472;-45
2021/04/25 10:21:57;;;;;;;14.27;13.00;;;24.40;65.10;;;;;;6275643;22;20548;-45
2021/04/25 10:24:24;;;;;;;13.60;12.70;;;24.40;65.10;;;;;;6275664;22;20560;-44
2021/04/25 10:27:04;;;;;;;13.37;12.47;;;24.40;65.20;;;;;;6274569;22;20722;-45
2021/04/25 10:29:36;;;;;;;13.43;12.43;;;24.40;65.30;;;;;;6274305;22;20447;-46
2021/04/25 10:32:04;;;;;;;14.00;13.00;;;24.40;65.30;;;;;;6275848;22;20483;-46
2021/04/25 10:34:32;;;;;;;13.87;12.87;;;24.40;65.20;;;;;;6276305;22;20463;-46
2021/04/25 10:37:02;;;;;;;14.17;13.10;;;24.50;65.40;;;;;;6275483;22;20500;-45
2021/04/25 10:39:40;;;;;;;13.77;12.67;;;24.40;65.30;;;;;;6274167;22;20546;-44
2021/04/25 10:42:32;;;;;;;13.43;12.43;;;24.40;65.40;;;;;;6247967;22;20486;-48
2021/04/25 10:45:17;;;;;;;13.57;12.33;;;24.40;65.40;;;;;;6278666;22;20575;-46
2021/04/25 10:47:48;;;;;;;13.90;12.80;;;24.40;65.50;;;;;;6277504;22;20437;-45
2021/04/25 10:50:44;;;;;;;14.80;13.50;;;24.40;65.50;;;;;;6276032;22;20450;-46
2021/04/25 10:53:23;;;;;;;13.53;12.63;;;24.40;65.50;;;;;;6276705;22;20454;-46
2021/04/25 10:55:51;;;;;;;13.80;12.90;;;24.40;65.60;;;;;;6272585;22;20439;-46
2021/04/25 10:58:20;;;;;;;12.70;11.70;;;24.40;65.50;;;;;;6275980;22;20557;-46
2021/04/25 11:00:47;;;;;;;13.37;12.37;;;24.40;65.60;;;;;;6278457;22;20467;-46
2021/04/25 11:03:28;;;;;;;14.30;13.10;;;24.40;65.60;;;;;;6276509;22;20450;-47
2021/04/25 11:05:55;;;;;;;13.67;12.50;;;24.40;65.60;;;;;;6276647;22;20450;-45
2021/04/25 11:08:41;;;;;;;13.13;12.13;;;24.40;65.70;;;;;;6277283;22;20751;-45
2021/04/25 11:11:10;;;;;;;12.30;11.40;;;24.40;65.70;;;;;;6277260;22;20480;-45
2021/04/25 11:13:43;;;;;;;12.70;11.90;;;24.40;65.70;;;;;;6277236;22;20681;-48
2021/04/25 11:16:25;;;;;;;13.10;12.20;;;24.40;65.80;;;;;;6277620;22;20449;-44
2021/04/25 11:18:53;;;;;;;14.27;13.27;;;24.40;66.00;;;;;;6279903;22;20498;-44
2021/04/25 11:21:50;;;;;;;13.43;12.53;;;24.40;65.80;;;;;;6274385;22;20482;-45
2021/04/25 11:24:33;;;;;;;14.07;12.93;;;24.40;65.80;;;;;;6275584;22;20463;-47
2021/04/25 11:27:08;;;;;;;13.50;12.30;;;24.40;65.90;;;;;;6274001;22;20459;-43
2021/04/25 11:30:03;;;;;;;13.77;12.57;;;24.40;65.80;;;;;;6277526;22;20730;-44
2021/04/25 11:32:35;;;;;;;13.20;12.13;;;24.40;65.90;;;;;;6249716;22;20699;-44
2021/04/25 11:35:09;;;;;;;13.90;12.80;;;24.40;66.70;;;;;;6274770;22;20458;-45
2021/04/25 11:37:38;;;;;;;13.20;12.30;;;24.40;66.00;;;;;;6247599;22;20439;-43
2021/04/25 11:40:07;;;;;;;13.07;12.17;;;24.40;66.10;;;;;;6275801;22;20669;-45
2021/04/25 11:42:37;;;;;;;13.83;12.73;;;24.40;66.10;;;;;;6276636;22;20778;-46
2021/04/25 11:45:07;;;;;;;13.90;12.90;;;24.40;66.10;;;;;;6275977;22;20466;-45
2021/04/25 11:47:34;;;;;;;13.70;12.60;;;24.40;66.10;;;;;;6276477;22;20447;-45
2021/04/25 11:50:03;;;;;;;14.53;13.07;;;24.40;66.10;;;;;;6275805;22;20672;-45
2021/04/25 11:52:32;;;;;;;12.97;12.00;;;24.40;66.10;;;;;;6249677;22;20786;-44
2021/04/25 11:55:02;;;;;;;13.90;12.80;;;24.40;66.10;;;;;;6280064;22;20487;-45
2021/04/25 11:57:31;;;;;;;13.17;12.27;;;24.40;66.20;;;;;;6280426;22;20466;-46
2021/04/25 11:59:59;;;;;;;11.90;11.20;;;24.40;66.20;;;;;;6280078;22;20768;-46
2021/04/25 12:02:27;;;;;;;14.17;12.77;;;24.40;66.30;;;;;;6277570;22;20808;-44
2021/04/25 12:04:55;;;;;;;13.83;12.53;;;24.40;66.30;;;;;;6251618;22;20459;-45
2021/04/25 12:07:33;;;;;;;13.30;12.30;;;24.40;67.00;;;;;;6278323;22;20468;-46
2021/04/25 12:10:02;;;;;;;14.20;13.10;;;24.40;66.30;;;;;;6278243;22;20470;-45
2021/04/25 12:12:29;;;;;;;13.43;12.50;;;24.40;66.40;;;;;;6276365;22;20453;-44
2021/04/25 12:15:00;;;;;;;14.13;13.10;;;24.40;66.40;;;;;;6276552;22;20446;-44
2021/04/25 12:17:34;;;;;;;14.00;12.87;;;24.40;66.40;;;;;;6277934;22;20439;-45
2021/04/25 12:20:01;;;;;;;13.50;12.57;;;24.40;66.40;;;;;;6276442;22;20540;-45
2021/04/25 12:22:29;;;;;;;13.47;12.57;;;24.40;66.50;;;;;;6276132;22;20543;-44
2021/04/25 12:24:57;;;;;;;13.80;12.90;;;24.30;66.40;;;;;;6275167;22;20444;-44
2021/04/25 12:27:24;;;;;;;13.80;12.70;;;24.30;66.50;;;;;;6277225;22;20657;-44
2021/04/25 12:29:51;;;;;;;13.50;12.60;;;24.30;66.50;;;;;;6278136;22;20774;-45
2021/04/25 12:32:19;;;;;;;13.90;12.83;;;24.30;66.50;;;;;;6278885;22;20455;-44
2021/04/25 12:34:56;;;;;;;14.47;13.23;;;24.30;66.40;;;;;;6278934;22;20447;-44
2021/04/25 12:37:37;;;;;;;12.80;12.00;;;24.30;66.50;;;;;;6274081;22;20708;-46
2021/04/25 12:40:05;;;;;;;12.90;12.00;;;24.40;66.60;;;;;;6275744;22;20466;-44
2021/04/25 12:42:33;;;;;;;14.53;13.33;;;24.30;66.50;;;;;;6274793;22;20462;-43
2021/04/25 12:44:59;;;;;;;12.90;12.10;;;24.30;66.50;;;;;;6276767;22;20903;-46
2021/04/25 12:47:30;;;;;;;13.03;12.13;;;24.30;66.60;;;;;;6276647;22;20454;-43